Time;durP1;ratioP1;P1;durP2;ratioP2;P2;SDS_P1;SDS_P2;PMS_P1;PMS_P2;Temp;Humidity;BMP_temperature;BMP_pressure;BME280_temperature;BME280_humidity;BME280_pressure;Samples;Min_cycle;Max_cycle;Signal;HPM_P1;HPM_P2
2022/11/13 00:00:46;;;;;;;11.10;6.40;;;;;;;;;;4988221;28;20117;-89
2022/11/13 00:03:11;;;;;;;10.65;7.13;;;;;;;;;;4985098;28;20026;-90
2022/11/13 00:05:37;;;;;;;16.63;7.22;;;;;;;;;;5016971;28;20017;-90
2022/11/13 00:08:02;;;;;;;15.25;7.53;;;;;;;;;;5011725;28;20069;-89
2022/11/13 00:10:27;;;;;;;16.67;6.45;;;;;;;;;;5020340;28;20022;-89
2022/11/13 00:12:53;;;;;;;12.30;6.50;;;;;;;;;;5018314;28;20384;-90
2022/11/13 00:15:19;;;;;;;12.95;6.88;;;;;;;;;;5023859;28;20088;-89
2022/11/13 00:17:44;;;;;;;13.60;7.50;;;;;;;;;;5026697;28;20034;-86
2022/11/13 00:20:10;;;;;;;17.80;7.38;;;;;;;;;;5020112;28;20033;-88
2022/11/13 00:22:35;;;;;;;15.15;6.63;;;;;;;;;;5028173;28;20076;-90
2022/11/13 00:25:00;;;;;;;26.60;9.30;;;;;;;;;;5000421;28;20018;-89
2022/11/13 00:27:29;;;;;;;22.42;8.15;;;;;;;;;;5000362;28;20038;-89
2022/11/13 00:29:54;;;;;;;14.32;8.00;;;;;;;;;;5009398;28;20025;-88
2022/11/13 00:32:19;;;;;;;12.52;7.20;;;;;;;;;;5001946;28;20025;-89
2022/11/13 00:34:45;;;;;;;27.92;7.63;;;;;;;;;;5012803;28;20057;-89
2022/11/13 00:37:10;;;;;;;22.85;8.27;;;;;;;;;;5008611;28;20101;-89
2022/11/13 00:39:35;;;;;;;15.68;8.80;;;;;;;;;;4991911;28;20026;-89
2022/11/13 00:42:01;;;;;;;11.02;7.13;;;;;;;;;;5009826;28;20033;-89
2022/11/13 00:44:26;;;;;;;26.10;7.05;;;;;;;;;;5011179;28;20037;-89
2022/11/13 00:46:52;;;;;;;17.98;8.85;;;;;;;;;;4991428;28;20038;-89
2022/11/13 00:49:17;;;;;;;28.38;8.68;;;;;;;;;;5027998;28;20010;-90
2022/11/13 00:51:42;;;;;;;12.77;7.85;;;;;;;;;;5018598;28;20030;-89
2022/11/13 00:54:08;;;;;;;18.88;8.55;;;;;;;;;;5023467;28;20034;-89
2022/11/13 00:56:33;;;;;;;17.48;8.43;;;;;;;;;;5010852;28;20432;-90
2022/11/13 00:58:59;;;;;;;18.50;8.48;;;;;;;;;;5012182;28;20029;-89
2022/11/13 01:01:24;;;;;;;15.07;8.32;;;;;;;;;;4990059;28;20036;-89
2022/11/13 01:03:50;;;;;;;16.30;7.82;;;;;;;;;;4996399;28;20034;-89
2022/11/13 01:06:22;;;;;;;18.85;7.72;;;;;;;;;;5008184;28;20030;-90
2022/11/13 01:08:47;;;;;;;;;;;;;;;;;;5008779;28;20026;-89
2022/11/13 01:11:19;;;;;;;9.55;6.72;;;;;;;;;;5010405;28;19933;-89
2022/11/13 01:13:47;;;;;;;45.35;8.07;;;;;;;;;;5006708;28;20022;-88
2022/11/13 01:16:14;;;;;;;17.20;7.15;;;;;;;;;;4988516;28;20058;-90
2022/11/13 01:18:41;;;;;;;15.15;6.95;;;;;;;;;;5007227;28;20029;-89
2022/11/13 01:21:18;;;;;;;15.85;7.53;;;;;;;;;;5003482;28;20014;-88
2022/11/13 01:23:44;;;;;;;16.25;6.97;;;;;;;;;;4993301;28;20041;-89
2022/11/13 01:26:09;;;;;;;25.42;8.02;;;;;;;;;;5009615;28;20029;-89
2022/11/13 01:28:35;;;;;;;20.95;7.25;;;;;;;;;;5009863;28;20531;-89
2022/11/13 01:31:05;;;;;;;15.38;7.60;;;;;;;;;;4985618;28;20440;-88
2022/11/13 01:33:31;;;;;;;17.80;7.15;;;;;;;;;;5008657;28;20076;-88
2022/11/13 01:36:05;;;;;;;35.38;7.13;;;;;;;;;;5014097;28;20030;-88
2022/11/13 01:38:32;;;;;;;22.25;6.97;;;;;;;;;;5006687;28;20679;-88
2022/11/13 01:40:58;;;;;;;12.43;7.53;;;;;;;;;;4992756;28;20021;-88
2022/11/13 01:43:33;;;;;;;15.75;6.63;;;;;;;;;;4988267;28;20065;-88
2022/11/13 01:45:59;;;;;;;10.30;7.10;;;;;;;;;;4993098;28;20018;-88
2022/11/13 01:48:34;;;;;;;15.00;6.63;;;;;;;;;;4998565;28;20029;-88
2022/11/13 01:51:00;;;;;;;9.40;5.95;;;;;;;;;;5004859;28;20503;-88
2022/11/13 01:53:28;;;;;;;13.38;6.32;;;;;;;;;;5006317;28;20013;-88
2022/11/13 01:55:53;;;;;;;21.05;5.80;;;;;;;;;;5009893;28;20018;-89
2022/11/13 01:58:19;;;;;;;13.32;6.70;;;;;;;;;;5003136;28;20046;-87
2022/11/13 02:00:46;;;;;;;9.32;6.15;;;;;;;;;;4989142;28;20045;-87
2022/11/13 02:03:11;;;;;;;15.38;6.32;;;;;;;;;;5010684;28;20435;-88
2022/11/13 02:05:37;;;;;;;10.50;6.10;;;;;;;;;;4997676;28;20052;-88
2022/11/13 02:08:02;;;;;;;8.82;6.18;;;;;;;;;;5010142;28;20728;-88
2022/11/13 02:10:28;;;;;;;8.85;5.55;;;;;;;;;;4993459;28;20126;-88
2022/11/13 02:12:54;;;;;;;10.90;6.32;;;;;;;;;;4992554;28;20030;-89
2022/11/13 02:15:22;;;;;;;10.90;6.03;;;;;;;;;;4998482;28;20488;-88
2022/11/13 02:17:53;;;;;;;13.75;5.85;;;;;;;;;;5010815;28;20101;-88
2022/11/13 02:20:45;;;;;;;18.30;5.78;;;;;;;;;;4992774;28;20026;-89
2022/11/13 02:23:16;;;;;;;;;;;;;;;;;;5006333;28;20037;-88
2022/11/13 02:25:43;;;;;;;12.05;4.97;;;;;;;;;;5007665;28;20379;-88
2022/11/13 02:28:08;;;;;;;17.65;6.50;;;;;;;;;;4992633;28;20452;-88
2022/11/13 02:30:35;;;;;;;8.23;5.75;;;;;;;;;;4988062;28;20121;-88
2022/11/13 02:33:00;;;;;;;16.00;5.70;;;;;;;;;;5001867;28;20034;-89
2022/11/13 02:35:32;;;;;;;13.05;6.00;;;;;;;;;;5007617;28;20384;-89
2022/11/13 02:38:02;;;;;;;27.27;6.20;;;;;;;;;;5008603;28;20074;-88
2022/11/13 02:40:29;;;;;;;20.75;7.03;;;;;;;;;;5003232;28;20038;-87
2022/11/13 02:42:55;;;;;;;41.33;5.93;;;;;;;;;;4989068;28;20400;-88
2022/11/13 02:45:20;;;;;;;74.05;7.18;;;;;;;;;;5004332;28;20033;-89
2022/11/13 02:47:46;;;;;;;29.88;6.90;;;;;;;;;;4992022;28;20041;-88
2022/11/13 02:50:12;;;;;;;35.25;7.05;;;;;;;;;;4993544;28;20080;-88
2022/11/13 02:52:38;;;;;;;22.95;6.65;;;;;;;;;;4987052;28;20053;-88
2022/11/13 02:55:04;;;;;;;15.35;5.82;;;;;;;;;;4985178;28;20051;-87
2022/11/13 02:57:30;;;;;;;12.25;5.72;;;;;;;;;;4989127;28;21226;-90
2022/11/13 02:59:55;;;;;;;21.58;6.72;;;;;;;;;;5001194;28;20032;-90
2022/11/13 03:02:21;;;;;;;10.27;5.88;;;;;;;;;;4989362;28;20025;-89
2022/11/13 03:04:46;;;;;;;7.20;5.22;;;;;;;;;;4997837;28;20064;-89
2022/11/13 03:07:12;;;;;;;21.45;6.47;;;;;;;;;;4990200;28;20060;-89
2022/11/13 03:09:38;;;;;;;8.20;5.25;;;;;;;;;;4992400;28;20502;-89
2022/11/13 03:12:08;;;;;;;8.73;6.03;;;;;;;;;;4989496;28;20092;-91
2022/11/13 03:14:34;;;;;;;15.00;5.10;;;;;;;;;;5000761;28;20030;-89
2022/11/13 03:16:59;;;;;;;8.38;5.40;;;;;;;;;;5004454;28;20506;-88
2022/11/13 03:19:25;;;;;;;6.90;5.68;;;;;;;;;;4999267;28;20029;-89
2022/11/13 03:21:50;;;;;;;7.90;4.45;;;;;;;;;;5004597;28;20021;-87
2022/11/13 03:24:16;;;;;;;11.05;4.80;;;;;;;;;;5005493;28;20086;-87
2022/11/13 03:26:41;;;;;;;11.20;4.50;;;;;;;;;;4992377;28;20053;-88
2022/11/13 03:29:07;;;;;;;8.15;4.45;;;;;;;;;;5011211;28;20034;-87
2022/11/13 03:31:32;;;;;;;13.57;4.65;;;;;;;;;;5011501;28;20149;-89
2022/11/13 03:33:58;;;;;;;7.05;4.63;;;;;;;;;;5013646;28;20030;-89
2022/11/13 03:36:23;;;;;;;7.00;5.10;;;;;;;;;;5019192;28;20029;-89
2022/11/13 03:38:49;;;;;;;11.38;4.53;;;;;;;;;;4992942;28;20120;-89
2022/11/13 03:41:14;;;;;;;8.38;5.15;;;;;;;;;;4988216;28;20388;-89
2022/11/13 03:43:41;;;;;;;17.88;4.65;;;;;;;;;;5000370;28;20049;-89
2022/11/13 03:46:06;;;;;;;7.72;5.28;;;;;;;;;;5006661;28;20040;-89
2022/11/13 03:48:32;;;;;;;8.15;4.95;;;;;;;;;;5002926;28;20124;-89
2022/11/13 03:50:57;;;;;;;9.82;4.97;;;;;;;;;;4987281;28;20452;-88
2022/11/13 03:53:23;;;;;;;6.97;5.07;;;;;;;;;;5001051;28;20033;-89
2022/11/13 03:55:48;;;;;;;6.93;4.38;;;;;;;;;;4996428;28;20056;-89
2022/11/13 03:58:14;;;;;;;5.63;4.22;;;;;;;;;;4989404;28;20451;-89
2022/11/13 04:00:41;;;;;;;4.90;3.88;;;;;;;;;;5008423;28;20045;-89
2022/11/13 04:03:07;;;;;;;6.97;4.50;;;;;;;;;;4981861;28;20108;-88
2022/11/13 04:05:32;;;;;;;6.22;4.03;;;;;;;;;;4999842;28;20034;-88
2022/11/13 04:07:58;;;;;;;11.90;5.05;;;;;;;;;;5000120;28;20033;-89
2022/11/13 04:10:24;;;;;;;8.30;4.45;;;;;;;;;;5008296;28;20026;-88
2022/11/13 04:12:49;;;;;;;5.78;4.15;;;;;;;;;;5011333;28;20029;-88
2022/11/13 04:15:15;;;;;;;13.55;4.20;;;;;;;;;;5015632;28;20022;-89
2022/11/13 04:17:40;;;;;;;6.05;4.35;;;;;;;;;;5022531;28;20398;-88
2022/11/13 04:20:07;;;;;;;10.85;4.45;;;;;;;;;;5035570;28;20037;-88
2022/11/13 04:22:32;;;;;;;4.60;3.80;;;;;;;;;;5001480;28;20120;-89
2022/11/13 04:24:57;;;;;;;14.52;4.32;;;;;;;;;;5000076;28;20109;-88
2022/11/13 04:27:23;;;;;;;5.45;4.28;;;;;;;;;;5016538;28;20491;-88
2022/11/13 04:29:48;;;;;;;4.38;3.50;;;;;;;;;;5018142;28;20114;-88
2022/11/13 04:32:14;;;;;;;7.47;4.25;;;;;;;;;;5000233;28;20476;-89
2022/11/13 04:34:39;;;;;;;5.70;4.25;;;;;;;;;;4994292;28;20122;-88
2022/11/13 04:37:04;;;;;;;5.32;3.63;;;;;;;;;;4996607;28;20030;-89
2022/11/13 04:39:30;;;;;;;11.75;4.68;;;;;;;;;;4997846;28;20022;-88
2022/11/13 04:44:39;;;;;;;20.40;4.70;;;;;;;;;;5001740;28;20036;-88
2022/11/13 04:47:04;;;;;;;6.82;4.72;;;;;;;;;;5007884;28;20100;-88
2022/11/13 04:49:30;;;;;;;6.80;4.63;;;;;;;;;;5017965;28;20029;-88
2022/11/13 04:52:01;;;;;;;5.82;4.00;;;;;;;;;;5001048;28;20112;-89
2022/11/13 04:54:27;;;;;;;21.70;4.85;;;;;;;;;;5015777;28;20040;-90
2022/11/13 04:56:52;;;;;;;12.23;4.43;;;;;;;;;;4999115;28;20033;-90
2022/11/13 04:59:17;;;;;;;6.93;4.35;;;;;;;;;;4999568;28;20061;-91
2022/11/13 05:01:43;;;;;;;6.65;4.55;;;;;;;;;;5017758;28;20018;-90
2022/11/13 05:04:13;;;;;;;8.10;4.03;;;;;;;;;;5000166;28;20029;-90
2022/11/13 05:06:39;;;;;;;7.72;4.35;;;;;;;;;;4999782;28;20043;-91
2022/11/13 05:09:04;;;;;;;4.05;3.58;;;;;;;;;;4999324;28;20028;-90
2022/11/13 05:11:30;;;;;;;14.05;4.80;;;;;;;;;;5003333;28;20036;-90
2022/11/13 05:13:55;;;;;;;16.73;4.45;;;;;;;;;;4999914;28;20443;-90
2022/11/13 05:16:21;;;;;;;25.42;5.15;;;;;;;;;;4999942;28;20377;-91
2022/11/13 05:18:46;;;;;;;6.63;4.38;;;;;;;;;;5000009;28;20110;-89
2022/11/13 05:21:12;;;;;;;6.03;4.45;;;;;;;;;;5010138;28;20030;-90
2022/11/13 05:23:37;;;;;;;4.30;3.67;;;;;;;;;;5017095;28;20026;-91
2022/11/13 05:26:05;;;;;;;6.78;4.10;;;;;;;;;;4999971;28;20095;-90
2022/11/13 05:28:31;;;;;;;7.68;3.60;;;;;;;;;;5015003;28;20113;-90
2022/11/13 05:31:09;;;;;;;26.17;3.83;;;;;;;;;;4997858;28;20068;-90
2022/11/13 05:33:36;;;;;;;11.35;3.90;;;;;;;;;;5016305;28;20033;-90
2022/11/13 05:36:08;;;;;;;17.70;4.68;;;;;;;;;;5009274;28;20026;-90
2022/11/13 05:38:33;;;;;;;;;;;;;;;;;;4997111;28;20406;-90
2022/11/13 05:41:10;;;;;;;3.92;2.92;;;;;;;;;;5024546;28;19948;-90
2022/11/13 05:43:39;;;;;;;7.15;3.63;;;;;;;;;;5031072;28;20041;-90
2022/11/13 05:46:18;;;;;;;22.63;4.47;;;;;;;;;;5030020;28;20036;-89
2022/11/13 05:48:45;;;;;;;10.00;4.30;;;;;;;;;;5033963;28;20017;-89
2022/11/13 05:51:13;;;;;;;18.25;4.10;;;;;;;;;;5020410;28;20076;-90
2022/11/13 05:53:39;;;;;;;31.33;4.38;;;;;;;;;;5005774;28;20037;-89
2022/11/13 05:56:07;;;;;;;17.48;4.38;;;;;;;;;;5018040;28;20026;-90
2022/11/13 05:58:33;;;;;;;63.83;5.82;;;;;;;;;;4999316;28;20037;-89
2022/11/13 06:01:15;;;;;;;7.35;4.53;;;;;;;;;;5008124;28;20072;-89
2022/11/13 06:03:41;;;;;;;6.40;4.68;;;;;;;;;;5008123;28;20041;-90
2022/11/13 06:06:10;;;;;;;29.65;4.38;;;;;;;;;;5019572;28;20041;-90
2022/11/13 06:08:36;;;;;;;13.95;4.10;;;;;;;;;;5016918;28;20120;-90
2022/11/13 06:11:04;;;;;;;43.65;4.85;;;;;;;;;;5009032;28;20072;-90
2022/11/13 06:13:30;;;;;;;36.35;5.18;;;;;;;;;;5002634;28;20033;-90
2022/11/13 06:16:03;;;;;;;51.72;5.03;;;;;;;;;;5016310;28;20018;-89
2022/11/13 06:18:29;;;;;;;48.33;4.53;;;;;;;;;;5013885;28;20048;-90
2022/11/13 06:20:55;;;;;;;4.95;3.50;;;;;;;;;;4999617;28;20022;-91
2022/11/13 06:23:20;;;;;;;28.38;4.43;;;;;;;;;;5012566;28;20029;-90
2022/11/13 06:25:46;;;;;;;29.10;3.80;;;;;;;;;;4999278;28;20072;-89
2022/11/13 06:28:11;;;;;;;43.53;4.45;;;;;;;;;;5011831;28;20471;-91
2022/11/13 06:30:37;;;;;;;38.03;3.63;;;;;;;;;;5015099;28;20034;-90
2022/11/13 06:33:02;;;;;;;54.05;5.82;;;;;;;;;;5015478;28;20037;-91
2022/11/13 06:35:28;;;;;;;15.73;3.38;;;;;;;;;;5017495;28;20366;-90
2022/11/13 06:37:54;;;;;;;45.92;4.60;;;;;;;;;;5000135;28;20018;-90
2022/11/13 06:40:20;;;;;;;40.95;4.45;;;;;;;;;;4999273;28;20037;-91
2022/11/13 06:42:45;;;;;;;20.65;4.28;;;;;;;;;;5010838;28;20026;-91
2022/11/13 06:45:11;;;;;;;36.13;4.90;;;;;;;;;;5003861;28;20033;-90
2022/11/13 06:47:36;;;;;;;22.08;4.10;;;;;;;;;;5010512;28;20076;-90
2022/11/13 06:50:02;;;;;;;14.90;5.03;;;;;;;;;;5014462;28;20033;-90
2022/11/13 06:52:27;;;;;;;16.02;3.88;;;;;;;;;;5010709;28;20064;-90
2022/11/13 06:54:53;;;;;;;5.95;3.45;;;;;;;;;;5016710;28;20045;-90
2022/11/13 06:57:18;;;;;;;14.40;3.88;;;;;;;;;;5014108;28;20026;-90
2022/11/13 06:59:43;;;;;;;24.30;5.22;;;;;;;;;;5015037;28;20451;-90
2022/11/13 07:02:10;;;;;;;30.55;3.92;;;;;;;;;;5015394;28;20026;-89
2022/11/13 07:04:36;;;;;;;29.90;4.60;;;;;;;;;;4998516;28;20028;-89
2022/11/13 07:07:03;;;;;;;4.78;3.50;;;;;;;;;;5014502;28;20030;-90
2022/11/13 07:09:29;;;;;;;21.65;4.50;;;;;;;;;;4998764;28;20037;-91
2022/11/13 07:11:54;;;;;;;22.60;4.07;;;;;;;;;;4997079;28;20034;-89
2022/11/13 07:14:19;;;;;;;5.43;3.60;;;;;;;;;;4994692;28;20032;-90
2022/11/13 07:16:45;;;;;;;34.00;4.47;;;;;;;;;;4996218;28;20032;-90
2022/11/13 07:19:10;;;;;;;32.95;3.65;;;;;;;;;;4994515;28;20108;-90
2022/11/13 07:21:35;;;;;;;26.17;4.45;;;;;;;;;;5015335;28;20021;-91
2022/11/13 07:24:01;;;;;;;5.53;3.70;;;;;;;;;;5010252;28;20023;-90
2022/11/13 07:26:26;;;;;;;13.45;4.40;;;;;;;;;;5006649;28;20510;-91
2022/11/13 07:28:52;;;;;;;14.63;3.88;;;;;;;;;;4995560;28;20021;-90
2022/11/13 07:31:17;;;;;;;21.60;4.00;;;;;;;;;;4985156;28;20108;-90
2022/11/13 07:33:43;;;;;;;28.65;4.10;;;;;;;;;;5001311;28;20403;-91
2022/11/13 07:36:09;;;;;;;4.40;3.47;;;;;;;;;;4986758;28;20052;-91
2022/11/13 07:38:35;;;;;;;37.85;4.30;;;;;;;;;;4991450;28;20021;-90
2022/11/13 07:41:01;;;;;;;18.67;4.07;;;;;;;;;;4986053;28;20018;-90
2022/11/13 07:43:27;;;;;;;15.20;4.20;;;;;;;;;;5000744;28;20034;-90
2022/11/13 07:45:54;;;;;;;5.93;3.80;;;;;;;;;;5009093;28;20037;-90
2022/11/13 07:48:21;;;;;;;8.23;3.30;;;;;;;;;;5001395;28;20468;-91
2022/11/13 07:50:46;;;;;;;6.72;3.95;;;;;;;;;;4998529;28;20045;-90
2022/11/13 07:53:12;;;;;;;15.30;3.65;;;;;;;;;;5027982;28;20038;-91
2022/11/13 07:55:37;;;;;;;6.97;3.75;;;;;;;;;;5003450;28;20021;-91
2022/11/13 07:58:04;;;;;;;15.23;3.05;;;;;;;;;;5017758;28;20040;-91
2022/11/13 08:00:31;;;;;;;19.08;3.40;;;;;;;;;;4995718;28;20026;-92
2022/11/13 08:02:58;;;;;;;5.25;3.72;;;;;;;;;;5013456;28;20049;-90
2022/11/13 08:05:23;;;;;;;11.35;3.85;;;;;;;;;;5000049;28;20034;-91
2022/11/13 08:07:50;;;;;;;16.08;3.88;;;;;;;;;;5010111;28;20022;-92
2022/11/13 08:10:17;;;;;;;14.27;4.70;;;;;;;;;;4990207;28;20030;-91
2022/11/13 08:12:43;;;;;;;12.05;3.67;;;;;;;;;;5022659;28;20026;-93
2022/11/13 08:15:10;;;;;;;30.67;5.63;;;;;;;;;;5025475;28;20018;-92
2022/11/13 08:17:35;;;;;;;7.85;4.22;;;;;;;;;;5015993;28;20018;-92
2022/11/13 08:20:01;;;;;;;13.85;3.67;;;;;;;;;;5011582;28;20113;-93
2022/11/13 08:22:26;;;;;;;5.72;3.70;;;;;;;;;;5014276;28;20467;-92
2022/11/13 08:24:52;;;;;;;11.77;4.15;;;;;;;;;;4994855;28;20041;-92
2022/11/13 08:27:19;;;;;;;4.25;3.15;;;;;;;;;;5012452;28;20093;-92
2022/11/13 08:29:45;;;;;;;11.00;3.65;;;;;;;;;;5020669;28;20043;-92
2022/11/13 08:32:14;;;;;;;16.55;4.30;;;;;;;;;;5014026;28;20093;-92
2022/11/13 08:34:39;;;;;;;8.85;4.22;;;;;;;;;;5015499;28;20026;-91
2022/11/13 08:37:05;;;;;;;9.15;3.47;;;;;;;;;;5007273;28;20136;-91
2022/11/13 08:39:30;;;;;;;4.35;3.72;;;;;;;;;;5007794;28;20392;-92
2022/11/13 08:41:56;;;;;;;6.88;3.53;;;;;;;;;;5012898;28;20061;-91
2022/11/13 08:44:21;;;;;;;5.85;4.05;;;;;;;;;;5024829;28;20042;-91
2022/11/13 08:46:47;;;;;;;8.32;3.53;;;;;;;;;;5006874;28;20021;-92
2022/11/13 08:49:12;;;;;;;6.72;4.90;;;;;;;;;;5024265;28;20582;-91
2022/11/13 08:51:37;;;;;;;9.98;4.78;;;;;;;;;;5019716;28;20056;-92
2022/11/13 08:54:03;;;;;;;7.35;4.35;;;;;;;;;;5015720;28;20038;-90
2022/11/13 08:56:28;;;;;;;11.13;4.95;;;;;;;;;;5000861;28;20022;-90
2022/11/13 08:58:54;;;;;;;31.45;5.00;;;;;;;;;;5006124;28;20022;-92
2022/11/13 09:01:22;;;;;;;10.88;4.72;;;;;;;;;;5026497;28;20026;-92
2022/11/13 09:03:50;;;;;;;6.10;4.07;;;;;;;;;;5022847;28;20334;-91
2022/11/13 09:06:16;;;;;;;5.05;3.88;;;;;;;;;;5005325;28;20030;-91
2022/11/13 09:08:42;;;;;;;6.68;4.18;;;;;;;;;;5024549;28;20042;-91
2022/11/13 09:11:07;;;;;;;11.15;5.10;;;;;;;;;;5019324;28;20117;-92
2022/11/13 09:13:33;;;;;;;12.35;4.47;;;;;;;;;;5007630;28;20028;-92
2022/11/13 09:16:00;;;;;;;9.38;4.63;;;;;;;;;;5009038;28;20032;-91
2022/11/13 09:18:26;;;;;;;7.57;4.45;;;;;;;;;;5014873;28;20025;-92
2022/11/13 09:20:52;;;;;;;5.82;4.53;;;;;;;;;;5017214;28;20049;-91
2022/11/13 09:23:17;;;;;;;7.63;4.15;;;;;;;;;;5008928;28;20033;-91
2022/11/13 09:25:42;;;;;;;15.18;5.03;;;;;;;;;;5023683;28;20030;-92
2022/11/13 09:28:09;;;;;;;6.75;4.75;;;;;;;;;;5007905;28;20583;-92
2022/11/13 09:30:37;;;;;;;6.72;4.65;;;;;;;;;;4997785;28;20026;-94
2022/11/13 09:33:02;;;;;;;7.43;4.88;;;;;;;;;;5008214;28;20463;-93
2022/11/13 09:35:35;;;;;;;8.65;5.45;;;;;;;;;;5031481;28;20036;-93
2022/11/13 09:38:14;;;;;;;8.15;5.43;;;;;;;;;;5027381;28;20576;-91
2022/11/13 09:40:42;;;;;;;7.32;4.88;;;;;;;;;;5018017;28;20037;-92
2022/11/13 09:43:40;;;;;;;7.00;4.95;;;;;;;;;;5020764;28;20033;-92
2022/11/13 09:46:35;;;;;;;7.57;5.05;;;;;;;;;;5002410;28;20550;-92
2022/11/13 09:49:16;;;;;;;6.55;4.57;;;;;;;;;;5018864;28;20033;-92
2022/11/13 09:51:52;;;;;;;7.22;4.50;;;;;;;;;;5020680;28;20018;-91
2022/11/13 09:54:18;;;;;;;7.90;5.35;;;;;;;;;;4999378;28;20049;-91
2022/11/13 09:57:12;;;;;;;6.65;4.53;;;;;;;;;;4998620;28;20392;-92
2022/11/13 09:59:47;;;;;;;6.97;4.40;;;;;;;;;;5012164;28;20041;-91
2022/11/13 10:02:37;;;;;;;6.90;4.60;;;;;;;;;;5016065;28;20412;-92
2022/11/13 10:05:18;;;;;;;6.55;4.75;;;;;;;;;;5008520;28;20491;-92
2022/11/13 10:08:04;;;;;;;7.50;4.60;;;;;;;;;;5012346;28;20130;-92
2022/11/13 10:10:44;;;;;;;10.93;5.38;;;;;;;;;;5009847;28;20053;-88
2022/11/13 10:13:14;;;;;;;9.57;4.70;;;;;;;;;;5006641;28;20055;-89
2022/11/13 10:15:43;;;;;;;8.50;5.38;;;;;;;;;;5010928;28;20057;-89
2022/11/13 10:18:26;;;;;;;8.88;5.00;;;;;;;;;;5018761;28;20025;-89
2022/11/13 10:20:56;;;;;;;7.20;4.50;;;;;;;;;;5007274;28;20025;-88
2022/11/13 10:23:34;;;;;;;9.80;4.88;;;;;;;;;;5006976;28;20022;-87
2022/11/13 10:26:13;;;;;;;6.15;4.43;;;;;;;;;;4999879;28;20033;-90
2022/11/13 10:28:39;;;;;;;5.53;4.30;;;;;;;;;;5013476;28;20028;-87
2022/11/13 10:31:04;;;;;;;8.98;5.47;;;;;;;;;;5031439;28;20013;-89
2022/11/13 10:33:30;;;;;;;7.60;5.10;;;;;;;;;;5004957;28;20073;-88
2022/11/13 10:36:38;;;;;;;7.57;5.10;;;;;;;;;;5016876;28;20037;-88
2022/11/13 10:39:06;;;;;;;7.40;5.43;;;;;;;;;;5020000;28;20084;-87
2022/11/13 10:41:32;;;;;;;10.45;4.97;;;;;;;;;;5034414;28;20010;-89
2022/11/13 10:44:03;;;;;;;10.07;5.78;;;;;;;;;;5007119;28;20121;-89
2022/11/13 10:46:30;;;;;;;10.63;5.68;;;;;;;;;;4996164;28;20368;-89
2022/11/13 10:48:56;;;;;;;6.95;4.85;;;;;;;;;;5000268;28;20034;-89
2022/11/13 10:51:24;;;;;;;8.38;5.70;;;;;;;;;;5000611;28;20437;-89
2022/11/13 10:53:50;;;;;;;8.55;5.15;;;;;;;;;;4995428;28;20033;-89
2022/11/13 10:56:42;;;;;;;8.35;5.43;;;;;;;;;;5016653;28;20025;-89
2022/11/13 10:59:13;;;;;;;7.27;5.27;;;;;;;;;;5012689;28;20380;-88
2022/11/13 11:01:40;;;;;;;7.30;5.35;;;;;;;;;;4992597;28;20274;-88
2022/11/13 11:04:18;;;;;;;7.38;5.00;;;;;;;;;;5001445;28;20455;-87
2022/11/13 11:06:43;;;;;;;5.57;4.30;;;;;;;;;;5013861;28;20028;-88
2022/11/13 11:09:25;;;;;;;6.90;4.95;;;;;;;;;;5016314;28;20448;-89
2022/11/13 11:12:15;;;;;;;7.38;4.95;;;;;;;;;;5016529;28;20029;-89
2022/11/13 11:14:57;;;;;;;7.68;5.28;;;;;;;;;;5029274;28;20030;-89
2022/11/13 11:17:50;;;;;;;7.93;5.05;;;;;;;;;;5032930;28;20026;-93
2022/11/13 11:20:19;;;;;;;;;;;;;;;;;;5016503;28;20046;-90
2022/11/13 11:22:50;;;;;;;7.60;5.40;;;;;;;;;;5034539;28;19917;-93
2022/11/13 11:25:35;;;;;;;8.25;5.15;;;;;;;;;;5015315;28;20038;-91
2022/11/13 11:28:31;;;;;;;7.93;4.88;;;;;;;;;;5018869;28;20085;-91
2022/11/13 11:31:27;;;;;;;7.78;5.05;;;;;;;;;;5033620;28;20041;-89
2022/11/13 11:34:01;;;;;;;6.95;5.18;;;;;;;;;;4999619;28;20022;-92
2022/11/13 11:36:40;;;;;;;6.93;4.85;;;;;;;;;;4990351;28;20050;-92
2022/11/13 11:39:43;;;;;;;6.93;5.13;;;;;;;;;;4980819;28;20033;-89
2022/11/13 11:42:17;;;;;;;10.82;5.53;;;;;;;;;;5012127;28;20022;-91
2022/11/13 11:44:49;;;;;;;9.27;5.70;;;;;;;;;;5012001;28;20076;-89
2022/11/13 11:47:16;;;;;;;9.35;5.80;;;;;;;;;;4996363;28;20160;-89
2022/11/13 11:49:43;;;;;;;6.75;4.78;;;;;;;;;;4997627;28;20031;-89
2022/11/13 11:52:08;;;;;;;7.00;4.70;;;;;;;;;;4983202;28;20097;-90
2022/11/13 11:55:02;;;;;;;8.82;5.32;;;;;;;;;;5011167;28;20046;-89
2022/11/13 11:57:57;;;;;;;9.88;5.35;;;;;;;;;;4991506;28;20034;-89
2022/11/13 12:00:24;;;;;;;11.55;5.80;;;;;;;;;;5015719;28;20034;-90
2022/11/13 12:03:25;;;;;;;7.75;5.93;;;;;;;;;;5015557;28;20026;-90
2022/11/13 12:06:02;;;;;;;6.72;4.75;;;;;;;;;;5014130;28;20525;-89
2022/11/13 12:08:44;;;;;;;9.02;5.47;;;;;;;;;;5013728;28;20030;-91
2022/11/13 12:11:10;;;;;;;;;;;;;;;;;;4985476;28;20134;-89
2022/11/13 12:13:58;;;;;;;7.90;4.90;;;;;;;;;;4996451;28;19989;-92
2022/11/13 12:16:43;;;;;;;8.07;5.53;;;;;;;;;;4998352;28;20127;-89
2022/11/13 12:19:34;;;;;;;8.20;4.93;;;;;;;;;;4988981;28;20026;-88
2022/11/13 12:22:11;;;;;;;7.50;4.93;;;;;;;;;;5013294;28;20026;-90
2022/11/13 12:24:54;;;;;;;7.97;5.47;;;;;;;;;;5014056;28;20770;-89
2022/11/13 12:27:34;;;;;;;8.93;5.50;;;;;;;;;;5000593;28;20026;-90
2022/11/13 12:30:11;;;;;;;8.77;6.05;;;;;;;;;;4996596;28;20037;-89
2022/11/13 12:33:05;;;;;;;7.80;5.85;;;;;;;;;;5015857;28;20081;-88
2022/11/13 12:35:31;;;;;;;9.85;5.13;;;;;;;;;;5000860;28;20029;-88
2022/11/13 12:38:27;;;;;;;8.60;6.38;;;;;;;;;;4983401;28;20026;-90
2022/11/13 12:41:18;;;;;;;7.05;4.90;;;;;;;;;;4983549;28;20033;-90
2022/11/13 12:44:11;;;;;;;8.10;5.33;;;;;;;;;;4983203;28;20033;-89
2022/11/13 12:46:40;;;;;;;8.25;5.20;;;;;;;;;;4983223;28;20118;-91
2022/11/13 12:49:24;;;;;;;7.28;5.43;;;;;;;;;;4983513;28;20026;-90
2022/11/13 12:51:55;;;;;;;7.88;4.95;;;;;;;;;;5000821;28;20043;-90
2022/11/13 12:54:36;;;;;;;11.60;5.80;;;;;;;;;;5001380;28;20034;-90
2022/11/13 12:57:17;;;;;;;8.87;5.47;;;;;;;;;;4988701;28;20360;-90
2022/11/13 12:59:48;;;;;;;9.32;5.97;;;;;;;;;;5003437;28;20109;-90
2022/11/13 13:02:13;;;;;;;6.47;4.78;;;;;;;;;;5018488;28;20022;-89
2022/11/13 13:04:54;;;;;;;9.98;5.28;;;;;;;;;;4986232;28;20056;-90
2022/11/13 13:07:41;;;;;;;8.65;5.13;;;;;;;;;;4983457;28;20125;-89
2022/11/13 13:10:37;;;;;;;6.85;4.97;;;;;;;;;;5000394;28;20030;-90
2022/11/13 13:13:23;;;;;;;7.55;5.32;;;;;;;;;;4992242;28;20101;-90
2022/11/13 13:15:55;;;;;;;8.75;5.38;;;;;;;;;;4991073;28;20084;-90
2022/11/13 13:18:27;;;;;;;7.05;5.10;;;;;;;;;;5005170;28;20037;-91
2022/11/13 13:21:10;;;;;;;7.55;5.60;;;;;;;;;;5021869;28;20042;-90
2022/11/13 13:23:42;;;;;;;6.43;4.88;;;;;;;;;;5005077;28;20049;-91
2022/11/13 13:26:24;;;;;;;9.40;5.15;;;;;;;;;;5023134;28;20025;-91
2022/11/13 13:29:01;;;;;;;7.70;5.20;;;;;;;;;;5006831;28;20030;-91
2022/11/13 13:31:40;;;;;;;8.40;4.97;;;;;;;;;;5007799;28;20033;-91
2022/11/13 13:34:43;;;;;;;7.70;5.43;;;;;;;;;;5022165;28;20025;-90
2022/11/13 13:37:29;;;;;;;9.65;5.93;;;;;;;;;;5026798;28;20418;-88
2022/11/13 13:40:21;;;;;;;9.73;5.60;;;;;;;;;;5002573;28;20593;-88
2022/11/13 13:43:13;;;;;;;6.82;5.25;;;;;;;;;;5006993;28;20164;-88
2022/11/13 13:45:55;;;;;;;8.48;5.55;;;;;;;;;;5001391;28;20061;-88
2022/11/13 13:48:25;;;;;;;7.95;4.55;;;;;;;;;;4999533;28;20122;-89
2022/11/13 13:50:52;;;;;;;6.45;4.72;;;;;;;;;;4985928;28;20044;-89
2022/11/13 13:53:23;;;;;;;7.75;4.68;;;;;;;;;;5001906;28;20084;-89
2022/11/13 13:55:53;;;;;;;9.65;5.72;;;;;;;;;;5030548;28;20032;-88
2022/11/13 13:58:24;;;;;;;9.38;5.50;;;;;;;;;;5001028;28;20035;-88
2022/11/13 14:00:57;;;;;;;11.88;5.93;;;;;;;;;;5003322;28;20105;-88
2022/11/13 14:03:24;;;;;;;7.00;5.05;;;;;;;;;;5018795;28;20029;-88
2022/11/13 14:05:50;;;;;;;8.60;5.70;;;;;;;;;;4993896;28;20030;-88
2022/11/13 14:08:18;;;;;;;7.22;5.53;;;;;;;;;;5018008;28;20036;-89
2022/11/13 14:10:47;;;;;;;7.15;5.03;;;;;;;;;;5000283;28;20506;-88
2022/11/13 14:13:14;;;;;;;7.80;4.97;;;;;;;;;;5017911;28;20472;-88
2022/11/13 14:15:39;;;;;;;7.72;5.30;;;;;;;;;;4999046;28;20029;-89
2022/11/13 14:18:12;;;;;;;5.88;4.55;;;;;;;;;;4979745;28;20192;-88
2022/11/13 14:20:49;;;;;;;8.30;5.43;;;;;;;;;;5013133;28;20547;-89
2022/11/13 14:23:26;;;;;;;7.75;4.90;;;;;;;;;;5000890;28;20025;-89
2022/11/13 14:25:53;;;;;;;7.65;5.15;;;;;;;;;;5017433;28;20466;-88
2022/11/13 14:28:21;;;;;;;7.68;5.25;;;;;;;;;;5000705;28;20480;-89
2022/11/13 14:30:56;;;;;;;7.80;5.13;;;;;;;;;;5000294;28;20026;-88
2022/11/13 14:33:35;;;;;;;10.88;5.70;;;;;;;;;;5013639;28;20488;-89
2022/11/13 14:36:02;;;;;;;8.80;5.43;;;;;;;;;;5000795;28;20041;-89
2022/11/13 14:38:32;;;;;;;7.38;5.22;;;;;;;;;;5002142;28;20026;-89
2022/11/13 14:40:58;;;;;;;7.78;5.63;;;;;;;;;;5002683;28;20063;-89
2022/11/13 14:43:50;;;;;;;9.30;6.43;;;;;;;;;;5019197;28;20029;-88
2022/11/13 14:46:30;;;;;;;8.38;5.72;;;;;;;;;;5020312;28;20613;-88
2022/11/13 14:48:56;;;;;;;6.68;4.93;;;;;;;;;;5009563;28;20058;-88
2022/11/13 14:51:25;;;;;;;10.23;5.72;;;;;;;;;;5008548;28;20080;-88
2022/11/13 14:54:02;;;;;;;7.53;5.40;;;;;;;;;;4997868;28;20109;-88
2022/11/13 14:56:39;;;;;;;9.82;5.57;;;;;;;;;;5018462;28;20032;-88
2022/11/13 14:59:16;;;;;;;7.68;4.95;;;;;;;;;;5019743;28;20431;-89